Time;durP1;ratioP1;P1;durP2;ratioP2;P2;SDS_P1;SDS_P2;PMS_P1;PMS_P2;Temp;Humidity;BMP_temperature;BMP_pressure;BME280_temperature;BME280_humidity;BME280_pressure;Samples;Min_cycle;Max_cycle;Signal;HPM_P1;HPM_P2
2023/12/15 00:02:02;;;;;;;12.65;5.72;;;;;;;7.27;84.70;101080.59;6062452;23;20019;-86
2023/12/15 00:04:29;;;;;;;14.18;6.00;;;;;;;7.29;84.10;101077.88;6110502;23;20053;-86
2023/12/15 00:06:56;;;;;;;12.48;5.22;;;;;;;7.29;83.98;101089.31;6062835;23;20022;-86
2023/12/15 00:09:23;;;;;;;14.40;5.72;;;;;;;7.28;84.00;101090.25;6109920;23;20494;-86
2023/12/15 00:11:50;;;;;;;13.95;6.10;;;;;;;7.29;83.72;101099.88;6110543;23;20057;-86
2023/12/15 00:14:17;;;;;;;12.77;6.05;;;;;;;7.27;84.22;101103.53;6079478;23;20498;-86
2023/12/15 00:16:44;;;;;;;15.00;6.35;;;;;;;7.28;84.17;101099.97;6049671;23;20097;-86
2023/12/15 00:19:11;;;;;;;15.68;6.20;;;;;;;7.30;83.63;101101.59;6061998;23;20387;-86
2023/12/15 00:21:39;;;;;;;13.02;6.65;;;;;;;7.31;84.08;101113.84;6110893;23;20030;-86
2023/12/15 00:24:08;;;;;;;14.23;6.03;;;;;;;7.28;84.57;101105.25;6086125;23;20638;-86
2023/12/15 00:26:35;;;;;;;14.77;6.57;;;;;;;7.25;85.08;101110.69;6084987;23;20513;-86
2023/12/15 00:29:03;;;;;;;12.90;5.85;;;;;;;7.30;85.04;101120.09;6085209;23;20041;-86
2023/12/15 00:31:30;;;;;;;17.13;6.85;;;;;;;7.28;85.01;101114.03;6061090;23;20081;-86
2023/12/15 00:33:57;;;;;;;15.68;6.57;;;;;;;7.24;85.37;101120.41;6086035;23;20674;-86
2023/12/15 00:36:24;;;;;;;15.85;6.43;;;;;;;7.25;85.33;101116.84;6062059;23;20450;-86
2023/12/15 00:38:51;;;;;;;14.00;7.32;;;;;;;7.26;85.25;101136.19;6085512;23;20022;-86
2023/12/15 00:41:18;;;;;;;15.95;6.57;;;;;;;7.22;85.94;101135.47;6085852;23;20010;-86
2023/12/15 00:43:45;;;;;;;15.45;6.53;;;;;;;7.23;85.92;101133.72;6061807;23;20027;-86
2023/12/15 00:46:12;;;;;;;18.35;6.97;;;;;;;7.22;86.07;101146.03;6109688;23;20026;-86
2023/12/15 00:48:39;;;;;;;15.02;7.18;;;;;;;7.20;86.44;101145.31;6062188;23;20022;-86
2023/12/15 00:51:06;;;;;;;19.13;7.10;;;;;;;7.20;85.94;101150.59;6037467;23;20026;-86
2023/12/15 00:53:33;;;;;;;18.10;7.65;;;;;;;7.20;85.38;101160.28;6037890;23;20403;-86
2023/12/15 00:56:00;;;;;;;17.98;7.80;;;;;;;7.23;85.48;101166.25;6086145;23;20026;-86
2023/12/15 00:58:27;;;;;;;19.10;8.05;;;;;;;7.25;84.86;101174.09;6109391;23;20454;-86
2023/12/15 01:00:54;;;;;;;16.35;7.22;;;;;;;7.22;84.88;101172.47;6061756;23;20404;-86
2023/12/15 01:03:21;;;;;;;21.63;8.23;;;;;;;7.23;85.07;101170.69;6038227;23;20746;-86
2023/12/15 01:05:50;;;;;;;19.55;7.35;;;;;;;7.23;84.94;101189.19;6085811;23;20094;-86
2023/12/15 01:08:17;;;;;;;18.85;8.02;;;;;;;7.24;84.10;101180.31;6037513;23;20030;-86
2023/12/15 01:10:44;;;;;;;19.00;8.18;;;;;;;7.22;83.67;101180.38;6110242;23;20018;-86
2023/12/15 01:13:11;;;;;;;19.10;7.60;;;;;;;7.20;84.19;101197.25;6061108;23;20374;-86
2023/12/15 01:15:39;;;;;;;18.75;8.05;;;;;;;7.18;84.05;101189.44;6085902;23;20525;-86
2023/12/15 01:18:06;;;;;;;21.40;8.93;;;;;;;7.13;85.74;101194.94;6061794;23;20412;-86
2023/12/15 01:20:33;;;;;;;19.25;7.53;;;;;;;7.13;83.99;101197.59;6060666;23;20105;-87
2023/12/15 01:23:00;;;;;;;17.20;7.55;;;;;;;7.12;86.17;101197.66;6061997;23;20030;-86
2023/12/15 01:25:27;;;;;;;18.27;7.53;;;;;;;7.07;88.14;101208.50;6110038;23;20022;-86
2023/12/15 01:27:54;;;;;;;20.05;8.13;;;;;;;7.05;88.54;101202.44;6061989;23;20027;-86
2023/12/15 01:30:20;;;;;;;16.85;7.35;;;;;;;7.01;89.86;101202.66;6037852;23;20057;-86
2023/12/15 01:32:47;;;;;;;22.17;9.20;;;;;;;7.00;89.79;101200.97;6109672;23;20027;-86
2023/12/15 01:35:14;;;;;;;19.25;8.35;;;;;;;7.02;89.68;101207.88;6037179;23;20028;-86
2023/12/15 01:37:41;;;;;;;21.13;8.35;;;;;;;7.04;90.13;101211.25;6081566;23;20053;-86
2023/12/15 01:40:08;;;;;;;23.65;8.27;;;;;;;7.05;90.21;101212.16;6084197;23;20089;-86
2023/12/15 01:42:35;;;;;;;20.50;8.00;;;;;;;7.03;89.94;101211.38;6061114;23;20446;-85
2023/12/15 01:45:03;;;;;;;20.52;8.40;;;;;;;7.06;89.65;101214.69;6037547;23;20022;-86
2023/12/15 01:47:29;;;;;;;22.75;8.57;;;;;;;7.04;89.92;101218.34;6109265;23;20038;-86
2023/12/15 01:49:57;;;;;;;18.60;7.57;;;;;;;7.07;89.32;101218.19;6109373;23;20033;-87
2023/12/15 01:52:24;;;;;;;19.50;8.18;;;;;;;7.10;89.20;101218.03;6109776;23;20029;-86
2023/12/15 01:54:51;;;;;;;21.20;8.23;;;;;;;7.10;88.90;101228.59;6109500;23;20050;-87
2023/12/15 01:57:17;;;;;;;21.02;8.05;;;;;;;7.05;89.40;101228.84;6109374;23;20022;-86
2023/12/15 01:59:49;;;;;;;19.23;9.00;;;;;;;7.03;90.00;101237.78;6037117;23;20077;-87
2023/12/15 02:02:16;;;;;;;21.55;8.65;;;;;;;6.98;90.25;101235.38;6084362;23;20079;-86
2023/12/15 02:04:43;;;;;;;19.20;7.40;;;;;;;7.00;90.58;101240.56;6085548;23;20034;-86
2023/12/15 02:07:10;;;;;;;22.20;8.38;;;;;;;6.99;90.71;101237.06;6085015;23;20081;-86
2023/12/15 02:09:38;;;;;;;17.70;7.75;;;;;;;6.95;90.97;101241.66;6060708;23;20061;-86
2023/12/15 02:12:05;;;;;;;21.75;8.13;;;;;;;6.91;90.87;101242.72;6085048;23;20101;-87
2023/12/15 02:14:32;;;;;;;23.00;8.52;;;;;;;6.93;91.02;101251.44;6084435;23;20584;-86
2023/12/15 02:16:59;;;;;;;19.05;7.57;;;;;;;6.89;91.56;101252.50;6038327;23;20434;-86
2023/12/15 02:19:26;;;;;;;21.38;8.48;;;;;;;6.89;91.50;101255.16;6084060;23;20033;-86
2023/12/15 02:21:53;;;;;;;20.45;8.00;;;;;;;6.90;91.38;101256.03;6109335;23;20026;-86
2023/12/15 02:24:20;;;;;;;19.98;7.88;;;;;;;6.86;91.41;101250.03;6061717;23;20077;-86
2023/12/15 02:26:47;;;;;;;17.95;8.65;;;;;;;6.83;91.19;101255.47;6085615;23;20038;-86
2023/12/15 02:29:14;;;;;;;23.83;7.88;;;;;;;6.85;90.97;101258.03;6083516;23;20082;-86
2023/12/15 02:31:40;;;;;;;22.60;8.45;;;;;;;6.84;91.02;101261.59;6085213;23;20056;-86
2023/12/15 02:34:07;;;;;;;22.70;8.35;;;;;;;6.81;91.06;101264.41;6085576;23;20526;-86
2023/12/15 02:36:34;;;;;;;18.60;8.20;;;;;;;6.77;91.04;101265.47;6060410;23;20061;-86
2023/12/15 02:39:02;;;;;;;21.30;9.25;;;;;;;6.77;90.97;101271.63;6061200;23;20024;-86
2023/12/15 02:41:30;;;;;;;22.70;9.30;;;;;;;6.77;90.84;101279.53;6084334;23;20053;-86
2023/12/15 02:43:57;;;;;;;26.17;9.45;;;;;;;6.76;90.60;101274.34;6059851;23;20077;-86
2023/12/15 02:46:24;;;;;;;24.80;9.35;;;;;;;6.75;90.60;101270.84;6085200;23;20379;-86
2023/12/15 02:48:51;;;;;;;21.83;8.77;;;;;;;6.71;90.75;101285.09;6060940;23;20113;-86
2023/12/15 02:51:27;;;;;;;21.67;8.30;;;;;;;6.68;90.20;101288.75;6060519;23;20023;-86
2023/12/15 02:53:55;;;;;;;20.70;8.63;;;;;;;6.69;90.57;101284.31;6061333;23;20023;-87
2023/12/15 02:56:22;;;;;;;23.52;8.85;;;;;;;6.68;90.80;101280.00;6085005;23;20030;-87
2023/12/15 02:58:49;;;;;;;16.33;7.50;;;;;;;6.67;90.31;101281.78;6084025;23;20028;-86
2023/12/15 03:01:16;;;;;;;25.13;9.40;;;;;;;6.68;90.23;101287.91;6083802;23;20010;-86
2023/12/15 03:03:43;;;;;;;22.23;8.85;;;;;;;6.66;90.84;101280.06;6085534;23;20049;-87
2023/12/15 03:06:10;;;;;;;28.83;9.88;;;;;;;6.69;91.09;101292.25;6061220;23;20019;-86
2023/12/15 03:08:36;;;;;;;23.80;8.73;;;;;;;6.66;91.03;101292.41;6036334;23;20160;-87
2023/12/15 03:11:03;;;;;;;21.73;8.85;;;;;;;6.69;90.43;101294.88;6108626;23;20042;-86
2023/12/15 03:13:30;;;;;;;21.80;8.43;;;;;;;6.68;90.84;101290.56;6059351;23;20355;-87
2023/12/15 03:16:11;;;;;;;24.13;9.73;;;;;;;6.65;91.14;101299.47;6037959;23;20026;-86
2023/12/15 03:18:38;;;;;;;20.85;8.10;;;;;;;6.70;91.02;101300.09;6036344;23;20333;-86
2023/12/15 03:21:05;;;;;;;24.23;8.65;;;;;;;6.71;91.44;101298.31;6036918;23;20097;-86
2023/12/15 03:23:31;;;;;;;21.20;9.30;;;;;;;6.69;91.62;101308.09;6061026;23;20106;-87
2023/12/15 03:25:58;;;;;;;23.98;8.63;;;;;;;6.64;91.74;101310.97;6110211;23;20023;-87
2023/12/15 03:28:25;;;;;;;17.13;8.05;;;;;;;6.69;91.55;101303.69;6085307;23;20587;-86
2023/12/15 03:30:52;;;;;;;16.92;7.70;;;;;;;6.68;92.12;101315.16;6086051;23;20022;-87
2023/12/15 03:33:19;;;;;;;21.85;8.27;;;;;;;6.65;92.68;101331.16;6086504;23;20014;-87
2023/12/15 03:35:46;;;;;;;21.25;8.10;;;;;;;6.68;92.33;101327.50;6062317;23;20458;-87
2023/12/15 03:38:13;;;;;;;21.25;9.25;;;;;;;6.68;92.69;101320.44;6039145;23;20462;-86
2023/12/15 03:40:40;;;;;;;21.50;9.10;;;;;;;6.71;92.78;101328.19;6062296;23;20034;-86
2023/12/15 03:43:07;;;;;;;26.23;9.82;;;;;;;6.71;92.88;101332.63;6085904;23;20506;-86
2023/12/15 03:45:33;;;;;;;21.58;9.00;;;;;;;6.70;93.06;101330.94;6062817;23;20097;-86
2023/12/15 03:48:00;;;;;;;22.80;9.10;;;;;;;6.70;93.06;101333.56;6087028;23;20026;-86
2023/12/15 03:50:27;;;;;;;23.17;8.90;;;;;;;6.70;93.03;101334.41;6085525;23;20029;-86
2023/12/15 03:52:54;;;;;;;24.38;9.77;;;;;;;6.70;92.98;101342.34;6061441;23;20026;-86
2023/12/15 03:55:21;;;;;;;23.45;9.05;;;;;;;6.70;93.14;101342.34;6086225;23;20080;-85
2023/12/15 03:57:48;;;;;;;25.55;9.55;;;;;;;6.71;93.35;101349.31;6087379;23;20395;-87
2023/12/15 04:00:14;;;;;;;22.30;9.27;;;;;;;6.74;93.25;101351.84;6109574;23;20097;-86
2023/12/15 04:02:41;;;;;;;25.23;9.90;;;;;;;6.72;93.39;101353.69;6062337;23;20026;-86
2023/12/15 04:05:09;;;;;;;22.80;9.20;;;;;;;6.74;93.20;101357.13;6062750;23;20040;-86
2023/12/15 04:07:36;;;;;;;23.35;9.27;;;;;;;6.74;93.09;101353.59;6038925;23;20521;-86
2023/12/15 04:10:03;;;;;;;22.52;9.07;;;;;;;6.76;93.19;101361.44;6037977;23;20029;-87
2023/12/15 04:12:30;;;;;;;21.55;9.38;;;;;;;6.74;92.93;101362.41;6110492;23;20947;-87
2023/12/15 04:14:57;;;;;;;26.35;9.88;;;;;;;6.74;93.29;101367.66;6110863;23;20049;-88
2023/12/15 04:17:24;;;;;;;27.70;9.80;;;;;;;6.74;93.30;101367.66;6085698;23;20098;-88
2023/12/15 04:19:50;;;;;;;24.35;8.98;;;;;;;6.72;93.47;101366.03;6086441;23;20018;-86
2023/12/15 04:22:19;;;;;;;24.90;9.68;;;;;;;6.71;93.82;101377.50;6134607;23;20477;-87
2023/12/15 04:24:45;;;;;;;23.88;9.88;;;;;;;6.72;93.22;101379.22;6062234;23;20029;-86
2023/12/15 04:27:12;;;;;;;27.52;9.88;;;;;;;6.71;93.92;101386.28;6061461;23;20022;-87
2023/12/15 04:29:39;;;;;;;25.88;10.20;;;;;;;6.70;94.21;101381.09;6085059;23;20030;-87
2023/12/15 04:32:06;;;;;;;29.85;10.88;;;;;;;6.69;94.09;101384.63;6062097;23;20023;-87
2023/12/15 04:34:33;;;;;;;22.35;9.85;;;;;;;6.72;93.84;101385.38;6135073;23;20073;-86
2023/12/15 04:37:00;;;;;;;30.95;10.95;;;;;;;6.72;93.87;101395.94;6061800;23;20459;-86
2023/12/15 04:39:27;;;;;;;25.35;10.73;;;;;;;6.71;94.44;101388.91;6061305;23;20028;-86
2023/12/15 04:41:54;;;;;;;25.98;11.45;;;;;;;6.71;94.37;101399.47;6062722;23;20811;-87
2023/12/15 04:44:20;;;;;;;25.23;9.38;;;;;;;6.71;94.49;101393.34;6085333;23;20462;-86
2023/12/15 04:46:48;;;;;;;27.92;10.95;;;;;;;6.69;94.43;101401.34;6085910;23;20038;-86
2023/12/15 04:49:15;;;;;;;28.10;10.00;;;;;;;6.66;94.35;101404.13;6110108;23;20018;-86
2023/12/15 04:51:42;;;;;;;25.27;10.45;;;;;;;6.66;94.57;101409.41;6109964;23;20046;-86
2023/12/15 04:54:09;;;;;;;30.13;11.23;;;;;;;6.67;94.68;101410.28;6038448;23;20102;-86
2023/12/15 04:56:36;;;;;;;25.83;10.00;;;;;;;6.66;94.77;101411.19;6062253;23;20598;-86
2023/12/15 04:59:03;;;;;;;26.73;10.70;;;;;;;6.68;94.64;101414.63;6057038;23;20365;-86
2023/12/15 05:01:30;;;;;;;19.67;8.93;;;;;;;6.69;94.36;101417.19;6107872;23;20121;-87
2023/12/15 05:03:56;;;;;;;20.73;9.70;;;;;;;6.67;94.69;101419.03;6086530;23;20102;-87
2023/12/15 05:06:23;;;;;;;28.02;10.82;;;;;;;6.69;94.83;101422.47;6085091;23;20375;-86
2023/12/15 05:08:53;;;;;;;26.00;9.38;;;;;;;6.70;94.71;101420.69;6062056;23;20018;-86
2023/12/15 05:11:20;;;;;;;21.23;9.20;;;;;;;6.67;94.86;101431.41;6037754;23;20030;-87
2023/12/15 05:13:47;;;;;;;25.35;10.57;;;;;;;6.67;94.61;101434.88;6085195;23;20714;-86
2023/12/15 05:16:13;;;;;;;22.17;10.38;;;;;;;6.66;94.65;101440.22;6085133;23;20526;-86
2023/12/15 05:18:40;;;;;;;21.75;9.35;;;;;;;6.65;94.90;101447.28;6061581;23;20451;-87
2023/12/15 05:21:08;;;;;;;22.55;9.55;;;;;;;6.65;94.89;101454.34;6038562;23;20046;-87
2023/12/15 05:23:35;;;;;;;26.63;10.02;;;;;;;6.64;94.51;101458.78;6055490;23;20483;-87
2023/12/15 05:26:02;;;;;;;24.30;9.15;;;;;;;6.62;94.23;101454.50;6081587;23;20366;-86
2023/12/15 05:28:29;;;;;;;23.58;9.18;;;;;;;6.60;93.69;101469.53;6084751;23;20556;-87
2023/12/15 05:30:56;;;;;;;23.35;9.93;;;;;;;6.53;93.54;101469.81;6133552;23;20093;-87
2023/12/15 05:33:23;;;;;;;24.67;9.75;;;;;;;6.51;93.34;101471.69;6061606;23;20014;-87
2023/12/15 05:35:50;;;;;;;26.65;9.60;;;;;;;6.51;92.96;101471.69;6060793;23;20498;-86
2023/12/15 05:38:17;;;;;;;21.05;8.57;;;;;;;6.49;92.83;101480.59;6109673;23;20034;-86
2023/12/15 05:40:44;;;;;;;24.33;8.48;;;;;;;6.45;92.77;101482.50;6061721;23;20029;-86
2023/12/15 05:43:11;;;;;;;20.20;8.25;;;;;;;6.44;92.59;101490.50;6037575;23;20058;-87
2023/12/15 05:45:37;;;;;;;22.55;9.02;;;;;;;6.42;92.25;101482.66;6085520;23;20029;-87
2023/12/15 05:48:04;;;;;;;18.27;9.10;;;;;;;6.42;92.22;101492.34;6110188;23;20486;-86
2023/12/15 05:50:32;;;;;;;27.25;9.65;;;;;;;6.43;92.49;101494.06;6109405;23;20786;-86
2023/12/15 05:53:02;;;;;;;22.77;8.48;;;;;;;6.44;92.14;101487.88;6060710;23;20042;-86
2023/12/15 05:55:29;;;;;;;17.55;8.30;;;;;;;6.41;92.37;101486.22;6062201;23;20030;-86
2023/12/15 05:57:56;;;;;;;23.40;9.15;;;;;;;6.44;92.62;101498.41;6085909;23;20030;-87
2023/12/15 06:00:23;;;;;;;20.92;9.23;;;;;;;6.43;92.70;101502.81;6058714;23;20092;-87
2023/12/15 06:02:50;;;;;;;30.02;11.52;;;;;;;6.43;92.59;101504.59;6061464;23;20022;-87
2023/12/15 06:05:16;;;;;;;35.72;14.77;;;;;;;6.45;92.30;101518.59;6085408;23;20022;-86
2023/12/15 06:07:43;;;;;;;36.25;15.35;;;;;;;6.44;93.02;101524.81;6085470;23;20316;-86
2023/12/15 06:10:10;;;;;;;26.35;11.40;;;;;;;6.43;92.59;101528.34;6084630;23;20018;-86
2023/12/15 06:12:37;;;;;;;22.65;8.68;;;;;;;6.42;92.51;101524.88;6036950;23;20320;-86
2023/12/15 06:15:06;;;;;;;18.23;8.35;;;;;;;6.43;92.03;101523.94;6109818;23;20029;-86
2023/12/15 06:17:33;;;;;;;19.48;8.93;;;;;;;6.40;92.77;101528.50;6084637;23;20049;-86
2023/12/15 06:20:01;;;;;;;19.20;8.50;;;;;;;6.39;93.05;101529.44;6085008;23;20354;-86
2023/12/15 06:22:28;;;;;;;20.08;8.60;;;;;;;6.40;93.22;101531.13;6037037;23;20027;-86
2023/12/15 06:24:54;;;;;;;16.60;7.72;;;;;;;6.39;92.81;101542.63;6109931;23;20447;-86
2023/12/15 06:27:21;;;;;;;20.25;8.43;;;;;;;6.42;92.56;101543.34;6061175;23;20022;-86
2023/12/15 06:29:48;;;;;;;26.75;8.85;;;;;;;6.43;92.05;101541.53;6060715;23;20053;-86
2023/12/15 06:32:15;;;;;;;21.83;9.05;;;;;;;6.41;92.47;101553.94;6132361;23;20085;-86
2023/12/15 06:34:43;;;;;;;19.60;9.25;;;;;;;6.43;91.95;101552.94;6060561;23;20014;-86
2023/12/15 06:37:09;;;;;;;22.88;10.15;;;;;;;6.43;92.50;101558.22;6084198;23;20450;-87
2023/12/15 06:39:36;;;;;;;17.67;8.45;;;;;;;6.42;93.07;101559.16;6060999;23;20018;-86
2023/12/15 06:42:03;;;;;;;18.85;7.75;;;;;;;6.39;93.92;101567.22;6108880;23;20339;-86
2023/12/15 06:44:31;;;;;;;19.92;8.15;;;;;;;6.39;94.14;101571.66;6060208;23;20264;-87
2023/12/15 06:46:59;;;;;;;19.23;9.38;;;;;;;6.40;94.29;101576.00;6061576;23;20046;-86
2023/12/15 06:49:30;;;;;;;17.17;8.10;;;;;;;6.40;94.17;101574.19;6075885;23;20030;-86
2023/12/15 06:51:58;;;;;;;21.25;8.57;;;;;;;6.42;94.37;101584.69;6079904;23;20026;-87
2023/12/15 06:54:25;;;;;;;25.15;10.95;;;;;;;6.37;94.58;101589.31;6108550;23;20033;-87
2023/12/15 06:56:52;;;;;;;18.73;9.32;;;;;;;6.39;94.36;101588.34;6109476;23;20491;-86
2023/12/15 06:59:19;;;;;;;24.75;9.27;;;;;;;6.41;94.85;101597.03;6107239;23;20089;-86
2023/12/15 07:01:46;;;;;;;22.65;8.95;;;;;;;6.41;94.48;101593.53;6131594;23;20383;-86
2023/12/15 07:04:16;;;;;;;18.30;8.10;;;;;;;6.40;95.13;101594.47;6082774;23;20048;-86
2023/12/15 07:06:50;;;;;;;20.30;9.07;;;;;;;6.39;95.73;101601.53;6087491;23;20416;-86
2023/12/15 07:09:17;;;;;;;25.55;10.43;;;;;;;6.40;95.38;101599.75;6084055;23;20025;-85
2023/12/15 07:11:46;;;;;;;21.15;9.43;;;;;;;6.38;95.43;101607.72;6083379;23;20030;-85
2023/12/15 07:14:13;;;;;;;20.13;8.73;;;;;;;6.39;95.98;101605.94;6059157;23;20078;-82
2023/12/15 07:16:40;;;;;;;21.63;9.52;;;;;;;6.36;96.19;101613.97;6084134;23;20074;-83
2023/12/15 07:19:08;;;;;;;20.40;8.60;;;;;;;6.36;96.21;101609.56;6083144;23;20026;-83
2023/12/15 07:21:35;;;;;;;18.73;9.38;;;;;;;6.36;96.07;101614.84;6058562;23;20037;-84
2023/12/15 07:24:02;;;;;;;19.83;8.80;;;;;;;6.40;95.77;101626.13;6084075;23;20378;-84
2023/12/15 07:26:29;;;;;;;21.23;9.70;;;;;;;6.39;96.05;101616.50;6083071;23;20045;-84
2023/12/15 07:28:56;;;;;;;23.08;9.13;;;;;;;6.39;96.09;101621.78;6107454;23;20097;-83
2023/12/15 07:31:23;;;;;;;18.80;9.73;;;;;;;6.42;96.26;101627.78;6081847;23;20400;-83
2023/12/15 07:33:49;;;;;;;20.13;10.10;;;;;;;6.43;96.07;101626.84;6107392;23;20150;-83
2023/12/15 07:36:16;;;;;;;23.80;10.90;;;;;;;6.47;95.61;101631.06;6035263;23;20029;-82
2023/12/15 07:38:43;;;;;;;23.63;11.07;;;;;;;6.48;95.92;101635.41;6058472;23;20078;-82
2023/12/15 07:41:10;;;;;;;20.38;9.98;;;;;;;6.48;96.32;101638.06;6059041;23;20037;-82
2023/12/15 07:43:38;;;;;;;21.05;10.13;;;;;;;6.48;96.19;101637.22;6083231;23;20022;-81
2023/12/15 07:46:05;;;;;;;22.60;10.75;;;;;;;6.53;96.21;101651.06;6106662;23;20034;-81
2023/12/15 07:48:32;;;;;;;26.70;11.77;;;;;;;6.49;95.84;101647.72;6106487;23;20060;-81
2023/12/15 07:50:59;;;;;;;25.67;10.88;;;;;;;6.50;96.28;101643.28;6084859;23;20022;-82
2023/12/15 07:53:26;;;;;;;22.38;10.13;;;;;;;6.50;96.81;101651.19;6106353;23;20031;-82
2023/12/15 07:55:55;;;;;;;24.00;10.77;;;;;;;6.49;97.12;101653.00;6106865;23;20033;-83
2023/12/15 07:58:22;;;;;;;26.25;10.57;;;;;;;6.49;97.50;101654.78;6083322;23;20029;-83
2023/12/15 08:00:51;;;;;;;22.05;9.45;;;;;;;6.51;97.67;101661.72;6107155;23;20040;-84
2023/12/15 08:03:18;;;;;;;23.65;10.82;;;;;;;6.48;98.24;101660.97;6083017;23;20061;-83
2023/12/15 08:05:45;;;;;;;24.88;11.40;;;;;;;6.47;98.51;101664.53;6083856;23;20077;-84
2023/12/15 08:08:12;;;;;;;24.60;11.10;;;;;;;6.51;98.36;101671.38;6107846;23;20019;-83
2023/12/15 08:10:39;;;;;;;22.40;10.90;;;;;;;6.50;98.61;101681.09;6107421;23;20022;-81
2023/12/15 08:13:09;;;;;;;20.13;9.95;;;;;;;6.52;98.67;101683.66;6108743;23;20042;-84
2023/12/15 08:15:37;;;;;;;21.85;10.48;;;;;;;6.52;98.47;101684.53;6084890;23;20027;-82
2023/12/15 08:18:03;;;;;;;22.00;10.43;;;;;;;6.55;98.12;101680.03;6061161;23;20098;-81
2023/12/15 08:20:30;;;;;;;26.52;11.38;;;;;;;6.56;98.26;101685.25;6108091;23;20023;-81
2023/12/15 08:22:57;;;;;;;24.95;11.32;;;;;;;6.57;98.56;101697.53;6108056;23;20097;-82
2023/12/15 08:25:24;;;;;;;28.63;12.45;;;;;;;6.55;98.76;101694.09;6084777;23;20026;-81
2023/12/15 08:27:51;;;;;;;24.25;10.95;;;;;;;6.56;99.00;101695.78;6084557;23;20036;-82
2023/12/15 08:30:17;;;;;;;27.90;10.75;;;;;;;6.56;99.28;101698.44;6059364;23;20082;-84
2023/12/15 08:32:44;;;;;;;25.13;11.02;;;;;;;6.57;99.39;101708.09;6061170;23;20023;-83
2023/12/15 08:35:11;;;;;;;28.95;11.77;;;;;;;6.58;99.32;101706.31;6086688;23;20156;-83
2023/12/15 08:37:38;;;;;;;26.92;11.18;;;;;;;6.59;98.79;101715.94;6084666;23;20062;-81
2023/12/15 08:40:06;;;;;;;29.15;11.80;;;;;;;6.59;99.23;101715.94;6083797;23;20097;-82
2023/12/15 08:42:32;;;;;;;30.92;12.75;;;;;;;6.58;99.46;101720.34;6083939;23;20646;-87
2023/12/15 08:44:59;;;;;;;30.85;14.52;;;;;;;6.59;99.44;101714.16;6085914;23;20098;-90
2023/12/15 08:47:26;;;;;;;26.98;12.77;;;;;;;6.64;99.44;101720.13;6062451;23;20026;-82
2023/12/15 08:49:53;;;;;;;34.53;14.00;;;;;;;6.66;99.59;101718.25;6084281;23;20392;-82
2023/12/15 08:52:20;;;;;;;26.67;13.43;;;;;;;6.69;99.40;101722.53;6083916;23;20019;-82
2023/12/15 08:54:46;;;;;;;32.20;14.18;;;;;;;6.68;98.92;101720.84;6084985;23;20034;-82
2023/12/15 08:57:13;;;;;;;29.33;14.23;;;;;;;6.70;99.16;101714.56;6061368;23;20022;-82
2023/12/15 08:59:40;;;;;;;38.10;15.48;;;;;;;6.74;99.30;101720.56;6108896;23;20017;-81
2023/12/15 09:02:08;;;;;;;37.90;14.55;;;;;;;6.74;99.10;101708.25;6084001;23;20453;-83
2023/12/15 09:04:35;;;;;;;36.13;16.42;;;;;;;6.78;99.51;101718.66;6060880;23;20029;-82
2023/12/15 09:07:08;;;;;;;40.03;17.25;;;;;;;6.81;99.35;101721.16;6038321;23;20379;-82
2023/12/15 09:09:35;;;;;;;39.90;15.27;;;;;;;6.85;99.45;101720.13;6059902;23;20109;-83
2023/12/15 09:12:02;;;;;;;31.27;15.60;;;;;;;6.89;99.27;101719.91;6084803;23;20447;-82
2023/12/15 09:14:30;;;;;;;32.08;14.90;;;;;;;6.91;99.17;101715.44;6083726;23;20023;-82
2023/12/15 09:16:57;;;;;;;34.55;14.07;;;;;;;6.94;99.01;101720.56;6061410;23;20029;-82
2023/12/15 09:19:25;;;;;;;37.47;15.43;;;;;;;6.96;98.85;101729.28;6083577;23;20026;-82
2023/12/15 09:21:52;;;;;;;31.73;13.50;;;;;;;6.99;98.97;101732.72;6106596;23;20022;-82
2023/12/15 09:24:19;;;;;;;33.95;14.75;;;;;;;7.00;98.93;101737.97;6108406;23;20018;-83
2023/12/15 09:26:46;;;;;;;29.33;14.20;;;;;;;7.01;98.79;101744.94;6083730;23;20081;-82
2023/12/15 09:29:14;;;;;;;28.88;14.05;;;;;;;7.02;98.73;101744.03;6075374;23;20051;-83
2023/12/15 09:31:42;;;;;;;36.60;14.20;;;;;;;7.04;98.91;101750.09;6126702;23;20045;-83
2023/12/15 09:34:09;;;;;;;50.75;15.38;;;;;;;7.08;98.70;101754.31;6056296;23;20026;-83
2023/12/15 09:36:36;;;;;;;33.10;13.50;;;;;;;7.08;98.47;101750.84;6105856;23;20022;-82
2023/12/15 09:39:03;;;;;;;29.08;14.20;;;;;;;7.09;98.34;101748.09;6061489;23;20056;-83
2023/12/15 09:41:30;;;;;;;35.35;13.68;;;;;;;7.11;97.78;101748.06;6059489;23;20045;-82
2023/12/15 09:43:56;;;;;;;30.92;13.82;;;;;;;7.10;97.93;101741.91;6108772;23;20029;-82
2023/12/15 09:46:23;;;;;;;29.73;13.63;;;;;;;7.15;97.67;101749.66;6108143;23;20034;-82
2023/12/15 09:48:51;;;;;;;32.65;13.70;;;;;;;7.18;97.93;101747.72;6060782;23;20025;-82
2023/12/15 09:51:25;;;;;;;26.23;13.93;;;;;;;7.20;98.08;101758.22;6059809;23;20023;-82
2023/12/15 09:53:52;;;;;;;27.38;12.65;;;;;;;7.22;97.87;101759.00;6085042;23;20126;-82
2023/12/15 09:56:19;;;;;;;27.33;13.30;;;;;;;7.23;97.67;101762.53;6108544;23;20018;-82
2023/12/15 09:58:46;;;;;;;45.53;14.05;;;;;;;7.26;97.45;101765.03;6083777;23;20029;-82
2023/12/15 10:01:13;;;;;;;29.55;12.80;;;;;;;7.25;97.40;101764.19;6060676;23;20135;-82
2023/12/15 10:03:40;;;;;;;27.67;13.77;;;;;;;7.25;97.02;101777.38;6084282;23;20046;-82
2023/12/15 10:06:07;;;;;;;36.58;12.98;;;;;;;7.27;96.93;101777.31;6060336;23;20037;-82
2023/12/15 10:08:42;;;;;;;25.55;11.57;;;;;;;7.28;97.35;101787.81;6109089;23;20033;-82
2023/12/15 10:11:28;;;;;;;29.00;13.68;;;;;;;7.31;97.66;101786.81;6103756;23;20156;-83
2023/12/15 10:13:55;;;;;;;30.02;13.40;;;;;;;7.27;96.96;101782.59;6084835;23;20026;-82
2023/12/15 10:16:27;;;;;;;33.17;13.35;;;;;;;7.25;96.46;101780.03;6060822;23;20616;-82
2023/12/15 10:18:53;;;;;;;25.63;12.10;;;;;;;7.28;96.65;101786.97;6060212;23;20027;-82
2023/12/15 10:21:21;;;;;;;25.70;12.27;;;;;;;7.28;96.31;101781.69;6060155;23;20097;-82
2023/12/15 10:23:47;;;;;;;23.13;11.70;;;;;;;7.27;96.18;101794.00;6083405;23;20026;-82
2023/12/15 10:26:14;;;;;;;28.17;11.15;;;;;;;7.28;96.28;101787.81;6082743;23;20031;-82
2023/12/15 10:28:42;;;;;;;28.00;12.73;;;;;;;7.30;96.65;101779.81;6108006;23;20097;-83
2023/12/15 10:31:08;;;;;;;27.42;11.77;;;;;;;7.30;96.90;101782.44;6109139;23;20022;-82
2023/12/15 10:33:35;;;;;;;27.95;11.88;;;;;;;7.32;96.65;101784.09;6082741;23;20078;-82
2023/12/15 10:36:06;;;;;;;24.73;11.70;;;;;;;7.33;96.67;101787.63;6084390;23;20698;-83
2023/12/15 10:38:33;;;;;;;23.38;10.82;;;;;;;7.34;96.62;101792.81;6107736;23;20034;-83
2023/12/15 10:40:59;;;;;;;23.48;11.23;;;;;;;7.35;96.77;101794.56;6084116;23;20042;-82
2023/12/15 10:43:28;;;;;;;25.95;10.63;;;;;;;7.35;96.01;101788.38;6133089;23;20034;-82
2023/12/15 10:45:55;;;;;;;24.00;11.55;;;;;;;7.36;96.07;101780.41;6084052;23;20125;-82
2023/12/15 10:48:24;;;;;;;25.27;11.48;;;;;;;7.39;95.91;101793.47;6083913;23;20030;-82
2023/12/15 10:50:52;;;;;;;24.08;11.07;;;;;;;7.44;96.04;101789.78;6084335;23;20391;-82
2023/12/15 10:53:19;;;;;;;27.77;12.07;;;;;;;7.44;96.50;101781.84;6107457;23;20030;-82
2023/12/15 10:55:46;;;;;;;25.60;10.85;;;;;;;7.44;96.13;101785.34;6083830;23;20347;-83
2023/12/15 10:58:13;;;;;;;23.95;10.63;;;;;;;7.46;96.21;101782.66;6084288;23;20029;-82
2023/12/15 11:00:40;;;;;;;22.63;10.75;;;;;;;7.45;95.99;101802.06;6083306;23;20073;-82
2023/12/15 11:03:10;;;;;;;26.70;12.30;;;;;;;7.43;95.29;101796.88;6108285;23;20383;-82
2023/12/15 11:05:40;;;;;;;21.67;11.10;;;;;;;7.42;95.10;101797.78;6107319;23;20045;-82
2023/12/15 11:08:07;;;;;;;23.15;10.85;;;;;;;7.42;95.51;101800.41;6083625;23;20085;-83
2023/12/15 11:10:35;;;;;;;24.60;11.40;;;;;;;7.43;96.02;101801.28;6083042;23;20018;-82
2023/12/15 11:13:02;;;;;;;23.42;10.80;;;;;;;7.44;96.01;101801.22;6084094;23;20065;-82
2023/12/15 11:15:29;;;;;;;26.60;11.05;;;;;;;7.45;96.12;101802.91;6083771;23;20586;-82
2023/12/15 11:17:59;;;;;;;20.88;10.15;;;;;;;7.48;96.25;101812.50;6060544;23;20026;-82
2023/12/15 11:20:28;;;;;;;22.48;11.25;;;;;;;7.49;96.32;101809.81;6059362;23;20538;-82
2023/12/15 11:23:10;;;;;;;26.67;11.02;;;;;;;7.53;96.08;101806.09;6131875;23;20413;-82